Milano, Italy

08:10 AM CET del 23 Febbraio 2017 (GMT +0100)
Via Piave | | Change Station
Avvisi attivi: >

Alt. 748 ft 45.64 °N, 8.77 °E | Updated 3 minutes ago

Nebbia
Nebbia
39.6 °F
Sembra 40 °F
N
0.6
Vento Variabile Vento da SO
Gusts 1.9 mph

Oggi
Massima -- | Minima -- °F
--% Possibilità di precip.
Ieri
Massima -- | Minima -- °F
Precip. -- in
Pressione 30.01 in
Visibilità 0.6 miglia
Nuvole Alcuni 500 ft
Molto nuvoloso 2500 ft
Raffreddamento del vento 40 °F
Punto di rugiada 38 °F
Umidità 95%
Piovosità 0.00 in
Spessore del manto nevoso Non disponibile.
7:13 AM 6:03 PM
Luna calante, 12% visible
METAR LIMN 230655Z 34004KT 0900 FG FEW005 BKN025 03/01 Q1016 RMK BKN VIS MIN 0900 AMB
Pressione 30.01 in
Visibilità 0.6 miglia
Nuvole Alcuni 500 ft
Molto nuvoloso 2500 ft
Raffreddamento del vento 40 °F
Punto di rugiada 38 °F
Umidità 95%
Piovosità 0.00 in
Spessore del manto nevoso Non disponibile.
7:13 AM 6:03 PM
Luna calante, 12% visible
METAR LIMN 230655Z 34004KT 0900 FG FEW005 BKN025 03/01 Q1016 RMK BKN VIS MIN 0900 AMB

Get Your Daily Forecast Email!

Thanks for signing up!

Be on the lookout for a verification email in your inbox.

You'll start receiving the daily forecast at 8 AM.

×

10-Day Weather Forecast

×

Almanac

Astronomia

Feb. 23, 2017 Alba Tramonto
Ora attuale
Crepuscolo civile
Crepuscolo nautico
Crepuscolo astronomico
Luna
Estensione della luce visibile
Lunghezza del giorno
Tomorrow will be .
, % of the Moon is Illuminated

Gli estremi di oggi

Massime Regione Minime Regione

Community

WunderPhotos

Upload Photos

1,962,540 foto caricate!

WunderBlog® & News

Nearby

Qualità dell'aria

  Qualità dell'aria Indice AQ Inquinante
Not available.

Profondità neve

Stazione Profondità Altitudine

Attività sismica

Città  Distanza Mag. Data & Ora
Minimo Magnitudo Mostrato è 2.5.

Temperature delle acque costiere

Località Temperatura

Stations

Stazioni meteo nelle vicinanze

Ubicazione della stazione Temp. Raffreddamento del vento Punto di rugiada Umidità Vento Precip. Alt. Aggiornato Tipo